sensor_id;sensor_type;location;lat;lon;timestamp;pressure;altitude;pressure_sealevel;temperature;humidity
54038;BME280;39954;48.844;9.726;2023-04-08T00:00:12;96260.03;;;5.51;100.00
54038;BME280;39954;48.844;9.726;2023-04-08T00:01:17;96254.00;;;5.52;100.00
54038;BME280;39954;48.844;9.726;2023-04-08T00:02:19;96263.63;;;5.47;100.00
54038;BME280;39954;48.844;9.726;2023-04-08T00:03:24;96262.59;;;5.53;100.00
54038;BME280;39954;48.844;9.726;2023-04-08T00:04:26;96260.94;;;5.50;100.00
54038;BME280;39954;48.844;9.726;2023-04-08T00:05:33;96261.97;;;5.46;100.00
54038;BME280;39954;48.844;9.726;2023-04-08T00:06:38;96261.78;;;5.51;100.00
54038;BME280;39954;48.844;9.726;2023-04-08T00:07:42;96267.84;;;5.50;100.00
54038;BME280;39954;48.844;9.726;2023-04-08T00:08:45;96260.91;;;5.52;100.00
54038;BME280;39954;48.844;9.726;2023-04-08T00:09:50;96260.00;;;5.53;100.00
54038;BME280;39954;48.844;9.726;2023-04-08T00:10:52;96252.31;;;5.51;100.00
54038;BME280;39954;48.844;9.726;2023-04-08T00:11:57;96253.25;;;5.49;100.00
54038;BME280;39954;48.844;9.726;2023-04-08T00:12:59;96259.16;;;5.52;100.00
54038;BME280;39954;48.844;9.726;2023-04-08T00:14:04;96257.28;;;5.57;100.00
54038;BME280;39954;48.844;9.726;2023-04-08T00:15:09;96258.84;;;5.61;100.00
54038;BME280;39954;48.844;9.726;2023-04-08T00:16:11;96257.16;;;5.60;100.00
54038;BME280;39954;48.844;9.726;2023-04-08T00:17:17;96257.06;;;5.64;100.00
54038;BME280;39954;48.844;9.726;2023-04-08T00:18:19;96263.16;;;5.61;100.00
54038;BME280;39954;48.844;9.726;2023-04-08T00:19:23;96259.84;;;5.57;100.00
54038;BME280;39954;48.844;9.726;2023-04-08T00:20:26;96258.72;;;5.65;100.00
54038;BME280;39954;48.844;9.726;2023-04-08T00:21:30;96261.31;;;5.65;100.00
54038;BME280;39954;48.844;9.726;2023-04-08T00:22:35;96265.47;;;5.69;100.00
54038;BME280;39954;48.844;9.726;2023-04-08T00:23:40;96261.78;;;5.76;100.00
54038;BME280;39954;48.844;9.726;2023-04-08T00:24:42;96258.63;;;5.68;100.00
54038;BME280;39954;48.844;9.726;2023-04-08T00:25:46;96264.56;;;5.70;100.00
54038;BME280;39954;48.844;9.726;2023-04-08T00:26:49;96262.16;;;5.65;100.00
54038;BME280;39954;48.844;9.726;2023-04-08T00:27:53;96267.25;;;5.67;100.00
54038;BME280;39954;48.844;9.726;2023-04-08T00:28:55;96262.22;;;5.64;100.00
54038;BME280;39954;48.844;9.726;2023-04-08T00:30:00;96263.66;;;5.71;100.00
54038;BME280;39954;48.844;9.726;2023-04-08T00:31:03;96262.84;;;5.70;100.00
54038;BME280;39954;48.844;9.726;2023-04-08T00:32:08;96256.63;;;5.76;100.00
54038;BME280;39954;48.844;9.726;2023-04-08T00:33:10;96265.16;;;5.78;100.00
54038;BME280;39954;48.844;9.726;2023-04-08T00:34:14;96259.16;;;5.77;100.00
54038;BME280;39954;48.844;9.726;2023-04-08T00:35:17;96260.78;;;5.80;100.00
54038;BME280;39954;48.844;9.726;2023-04-08T00:36:21;96268.53;;;5.80;100.00
54038;BME280;39954;48.844;9.726;2023-04-08T00:37:24;96263.16;;;5.86;100.00
54038;BME280;39954;48.844;9.726;2023-04-08T00:38:31;96262.34;;;5.84;100.00
54038;BME280;39954;48.844;9.726;2023-04-08T00:39:33;96265.03;;;5.81;100.00
54038;BME280;39954;48.844;9.726;2023-04-08T00:40:38;96256.50;;;5.79;100.00
54038;BME280;39954;48.844;9.726;2023-04-08T00:41:40;96261.84;;;5.74;100.00
54038;BME280;39954;48.844;9.726;2023-04-08T00:42:45;96264.34;;;5.76;100.00
54038;BME280;39954;48.844;9.726;2023-04-08T00:43:47;96261.84;;;5.74;100.00
54038;BME280;39954;48.844;9.726;2023-04-08T00:44:52;96261.78;;;5.76;100.00
54038;BME280;39954;48.844;9.726;2023-04-08T00:45:54;96263.56;;;5.74;100.00
54038;BME280;39954;48.844;9.726;2023-04-08T00:46:59;96262.84;;;5.70;100.00
54038;BME280;39954;48.844;9.726;2023-04-08T00:48:01;96262.03;;;5.68;100.00
54038;BME280;39954;48.844;9.726;2023-04-08T00:49:06;96264.00;;;5.61;100.00
54038;BME280;39954;48.844;9.726;2023-04-08T00:50:09;96264.16;;;5.57;100.00
54038;BME280;39954;48.844;9.726;2023-04-08T00:51:14;96264.09;;;5.58;100.00
54038;BME280;39954;48.844;9.726;2023-04-08T00:52:17;96259.69;;;5.62;100.00
54038;BME280;39954;48.844;9.726;2023-04-08T00:53:21;96263.31;;;5.56;100.00
54038;BME280;39954;48.844;9.726;2023-04-08T00:54:29;96266.00;;;5.53;100.00
54038;BME280;39954;48.844;9.726;2023-04-08T00:55:34;96261.06;;;5.47;100.00
54038;BME280;39954;48.844;9.726;2023-04-08T00:56:36;96268.94;;;5.43;100.00
54038;BME280;39954;48.844;9.726;2023-04-08T00:57:41;96264.59;;;5.43;100.00
54038;BME280;39954;48.844;9.726;2023-04-08T00:58:44;96271.47;;;5.44;100.00
54038;BME280;39954;48.844;9.726;2023-04-08T00:59:49;96268.19;;;5.39;100.00
54038;BME280;39954;48.844;9.726;2023-04-08T01:00:57;96268.09;;;5.42;100.00
54038;BME280;39954;48.844;9.726;2023-04-08T01:02:07;96268.09;;;5.42;100.00
54038;BME280;39954;48.844;9.726;2023-04-08T01:03:15;96270.75;;;5.41;100.00
54038;BME280;39954;48.844;9.726;2023-04-08T01:04:27;96275.94;;;5.39;100.00
54038;BME280;39954;48.844;9.726;2023-04-08T01:05:35;96265.66;;;5.37;100.00
54038;BME280;39954;48.844;9.726;2023-04-08T01:06:48;96268.31;;;5.36;100.00
54038;BME280;39954;48.844;9.726;2023-04-08T01:07:51;96257.06;;;5.38;100.00
54038;BME280;39954;48.844;9.726;2023-04-08T01:08:57;96265.72;;;5.36;100.00
54038;BME280;39954;48.844;9.726;2023-04-08T01:10:06;96266.63;;;5.35;100.00
54038;BME280;39954;48.844;9.726;2023-04-08T01:11:16;96271.84;;;5.32;100.00
54038;BME280;39954;48.844;9.726;2023-04-08T01:12:23;96264.94;;;5.34;100.00
54038;BME280;39954;48.844;9.726;2023-04-08T01:13:33;96264.94;;;5.34;100.00
54038;BME280;39954;48.844;9.726;2023-04-08T01:14:41;96264.81;;;5.37;100.00
54038;BME280;39954;48.844;9.726;2023-04-08T01:15:47;96262.34;;;5.34;100.00
54038;BME280;39954;48.844;9.726;2023-04-08T01:16:50;96271.84;;;5.32;100.00
54038;BME280;39954;48.844;9.726;2023-04-08T01:17:58;96259.97;;;5.28;100.00
54038;BME280;39954;48.844;9.726;2023-04-08T01:19:03;96263.41;;;5.28;100.00
54038;BME280;39954;48.844;9.726;2023-04-08T01:20:12;96270.09;;;5.34;100.00
54038;BME280;39954;48.844;9.726;2023-04-08T01:21:17;96257.25;;;5.32;100.00
54038;BME280;39954;48.844;9.726;2023-04-08T01:22:28;96265.63;;;5.39;100.00
54038;BME280;39954;48.844;9.726;2023-04-08T01:23:39;96266.53;;;5.38;100.00
54038;BME280;39954;48.844;9.726;2023-04-08T01:24:46;96259.63;;;5.38;100.00
54038;BME280;39954;48.844;9.726;2023-04-08T01:25:51;96267.38;;;5.38;100.00
54038;BME280;39954;48.844;9.726;2023-04-08T01:26:57;96262.22;;;5.38;100.00
54038;BME280;39954;48.844;9.726;2023-04-08T01:28:03;96268.19;;;5.39;100.00
54038;BME280;39954;48.844;9.726;2023-04-08T01:29:09;96263.03;;;5.39;100.00
54038;BME280;39954;48.844;9.726;2023-04-08T01:30:15;96262.31;;;5.35;100.00
54038;BME280;39954;48.844;9.726;2023-04-08T01:31:21;96274.41;;;5.33;100.00
54038;BME280;39954;48.844;9.726;2023-04-08T01:32:25;96263.16;;;5.36;100.00
54038;BME280;39954;48.844;9.726;2023-04-08T01:33:31;96266.34;;;5.43;100.00
54038;BME280;39954;48.844;9.726;2023-04-08T01:34:35;96261.19;;;5.43;100.00
54038;BME280;39954;48.844;9.726;2023-04-08T01:35:41;96268.16;;;5.41;100.00
54038;BME280;39954;48.844;9.726;2023-04-08T01:36:44;96263.16;;;5.36;100.00
54038;BME280;39954;48.844;9.726;2023-04-08T01:37:50;96257.06;;;5.38;100.00
54038;BME280;39954;48.844;9.726;2023-04-08T01:38:53;96264.59;;;5.43;100.00
54038;BME280;39954;48.844;9.726;2023-04-08T01:39:59;96263.75;;;5.44;100.00
54038;BME280;39954;48.844;9.726;2023-04-08T01:41:07;96266.25;;;5.46;100.00
54038;BME280;39954;48.844;9.726;2023-04-08T01:42:12;96260.25;;;5.45;100.00
54038;BME280;39954;48.844;9.726;2023-04-08T01:43:16;96259.47;;;5.43;100.00
54038;BME280;39954;48.844;9.726;2023-04-08T01:44:21;96266.41;;;5.41;100.00
54038;BME280;39954;48.844;9.726;2023-04-08T01:45:25;96263.94;;;5.38;100.00
54038;BME280;39954;48.844;9.726;2023-04-08T01:46:31;96264.59;;;5.43;100.00
54038;BME280;39954;48.844;9.726;2023-04-08T01:47:34;96268.19;;;5.39;100.00
54038;BME280;39954;48.844;9.726;2023-04-08T01:48:39;96262.31;;;5.35;100.00
54038;BME280;39954;48.844;9.726;2023-04-08T01:49:42;96264.06;;;5.35;100.00
54038;BME280;39954;48.844;9.726;2023-04-08T01:50:48;96264.94;;;5.34;100.00
54038;BME280;39954;48.844;9.726;2023-04-08T01:51:52;96260.69;;;5.33;100.00
54038;BME280;39954;48.844;9.726;2023-04-08T01:52:59;96256.47;;;5.30;100.00
54038;BME280;39954;48.844;9.726;2023-04-08T01:54:02;96261.66;;;5.29;100.00
54038;BME280;39954;48.844;9.726;2023-04-08T01:55:07;96266.19;;;5.22;100.00
54038;BME280;39954;48.844;9.726;2023-04-08T01:56:13;96267.91;;;5.22;100.00
54038;BME280;39954;48.844;9.726;2023-04-08T01:57:23;96263.75;;;5.18;100.00
54038;BME280;39954;48.844;9.726;2023-04-08T01:58:29;96265.56;;;5.15;100.00
54038;BME280;39954;48.844;9.726;2023-04-08T01:59:37;96271.53;;;5.16;100.00
54038;BME280;39954;48.844;9.726;2023-04-08T02:00:41;96265.69;;;5.11;100.00
54038;BME280;39954;48.844;9.726;2023-04-08T02:01:47;96260.56;;;5.09;100.00
54038;BME280;39954;48.844;9.726;2023-04-08T02:02:50;96270.09;;;5.07;100.00
54038;BME280;39954;48.844;9.726;2023-04-08T02:03:55;96267.53;;;5.07;100.00
54038;BME280;39954;48.844;9.726;2023-04-08T02:04:58;96257.25;;;5.06;100.00
54038;BME280;39954;48.844;9.726;2023-04-08T02:06:04;96267.63;;;5.04;100.00
54038;BME280;39954;48.844;9.726;2023-04-08T02:07:06;96273.66;;;5.03;100.00
54038;BME280;39954;48.844;9.726;2023-04-08T02:08:11;96265.94;;;5.03;100.00
54038;BME280;39954;48.844;9.726;2023-04-08T02:09:16;96265.88;;;5.05;100.00
54038;BME280;39954;48.844;9.726;2023-04-08T02:10:18;96271.09;;;5.03;100.00
54038;BME280;39954;48.844;9.726;2023-04-08T02:11:26;96272.84;;;5.01;100.00
54038;BME280;39954;48.844;9.726;2023-04-08T02:12:29;96278.06;;;5.00;100.00
54038;BME280;39954;48.844;9.726;2023-04-08T02:13:33;96272.94;;;4.98;100.00
54038;BME280;39954;48.844;9.726;2023-04-08T02:14:36;96271.28;;;4.97;100.00
54038;BME280;39954;48.844;9.726;2023-04-08T02:15:46;96272.94;;;4.98;100.00
54038;BME280;39954;48.844;9.726;2023-04-08T02:16:53;96274.66;;;4.99;100.00
54038;BME280;39954;48.844;9.726;2023-04-08T02:18:04;96271.19;;;5.00;100.00
54038;BME280;39954;48.844;9.726;2023-04-08T02:19:14;96276.13;;;5.06;100.00
54038;BME280;39954;48.844;9.726;2023-04-08T02:20:23;96271.09;;;5.03;100.00
54038;BME280;39954;48.844;9.726;2023-04-08T02:21:32;96267.53;;;5.07;100.00
54038;BME280;39954;48.844;9.726;2023-04-08T02:22:43;96272.81;;;5.03;100.00
54038;BME280;39954;48.844;9.726;2023-04-08T02:23:49;96271.19;;;5.00;100.00
54038;BME280;39954;48.844;9.726;2023-04-08T02:24:54;96270.38;;;4.98;100.00
54038;BME280;39954;48.844;9.726;2023-04-08T02:25:57;96271.19;;;5.00;100.00
54038;BME280;39954;48.844;9.726;2023-04-08T02:27:06;96272.84;;;5.01;100.00
54038;BME280;39954;48.844;9.726;2023-04-08T02:28:11;96279.81;;;4.99;100.00
54038;BME280;39954;48.844;9.726;2023-04-08T02:29:17;96274.66;;;4.99;100.00
54038;BME280;39954;48.844;9.726;2023-04-08T02:30:20;96276.44;;;4.97;100.00
54038;BME280;39954;48.844;9.726;2023-04-08T02:31:26;96276.56;;;4.92;100.00
54038;BME280;39954;48.844;9.726;2023-04-08T02:32:29;96276.44;;;4.97;100.00
54038;BME280;39954;48.844;9.726;2023-04-08T02:33:37;96273.84;;;4.97;100.00
54038;BME280;39954;48.844;9.726;2023-04-08T02:34:40;96276.44;;;4.97;100.00
54038;BME280;39954;48.844;9.726;2023-04-08T02:35:59;96277.34;;;4.96;100.00
54038;BME280;39954;48.844;9.726;2023-04-08T02:37:05;96274.78;;;4.94;100.00
54038;BME280;39954;48.844;9.726;2023-04-08T02:38:08;96274.84;;;4.93;100.00
54038;BME280;39954;48.844;9.726;2023-04-08T02:39:13;96272.28;;;4.93;100.00
54038;BME280;39954;48.844;9.726;2023-04-08T02:40:23;96280.84;;;4.93;100.00
54038;BME280;39954;48.844;9.726;2023-04-08T02:41:28;96268.00;;;4.92;100.00
54038;BME280;39954;48.844;9.726;2023-04-08T02:42:33;96274.84;;;4.93;100.00
54038;BME280;39954;48.844;9.726;2023-04-08T02:43:38;96280.88;;;4.92;100.00
54038;BME280;39954;48.844;9.726;2023-04-08T02:44:40;96277.50;;;4.90;100.00
54038;BME280;39954;48.844;9.726;2023-04-08T02:45:45;96274.00;;;4.92;100.00
54038;BME280;39954;48.844;9.726;2023-04-08T02:46:47;96276.53;;;4.94;100.00
54038;BME280;39954;48.844;9.726;2023-04-08T02:47:52;96280.69;;;4.98;100.00
54038;BME280;39954;48.844;9.726;2023-04-08T02:48:54;96278.19;;;4.95;100.00
54038;BME280;39954;48.844;9.726;2023-04-08T02:49:59;96281.56;;;4.99;100.00
54038;BME280;39954;48.844;9.726;2023-04-08T02:51:01;96279.84;;;4.98;100.00
54038;BME280;39954;48.844;9.726;2023-04-08T02:52:06;96286.53;;;5.03;100.00
54038;BME280;39954;48.844;9.726;2023-04-08T02:53:08;96272.94;;;4.98;100.00
54038;BME280;39954;48.844;9.726;2023-04-08T02:54:13;96274.66;;;4.99;100.00
54038;BME280;39954;48.844;9.726;2023-04-08T02:55:15;96282.41;;;4.98;100.00
54038;BME280;39954;48.844;9.726;2023-04-08T02:56:20;96281.59;;;4.97;100.00
54038;BME280;39954;48.844;9.726;2023-04-08T02:57:22;96279.91;;;4.96;100.00
54038;BME280;39954;48.844;9.726;2023-04-08T02:58:29;96286.00;;;4.93;100.00
54038;BME280;39954;48.844;9.726;2023-04-08T02:59:32;96280.84;;;4.93;100.00
54038;BME280;39954;48.844;9.726;2023-04-08T03:00:38;96284.13;;;4.99;100.00
54038;BME280;39954;48.844;9.726;2023-04-08T03:01:41;96279.81;;;4.99;100.00
54038;BME280;39954;48.844;9.726;2023-04-08T03:02:46;96276.63;;;4.91;100.00
54038;BME280;39954;48.844;9.726;2023-04-08T03:03:48;96280.06;;;4.90;100.00
54038;BME280;39954;48.844;9.726;2023-04-08T03:04:53;96280.19;;;4.87;100.00
54038;BME280;39954;48.844;9.726;2023-04-08T03:05:56;96281.06;;;4.86;100.00
54038;BME280;39954;48.844;9.726;2023-04-08T03:07:01;96281.06;;;4.86;100.00
54038;BME280;39954;48.844;9.726;2023-04-08T03:08:03;96281.97;;;4.85;100.00
54038;BME280;39954;48.844;9.726;2023-04-08T03:09:07;96283.75;;;4.83;100.00
54038;BME280;39954;48.844;9.726;2023-04-08T03:10:10;96274.34;;;4.82;100.00
54038;BME280;39954;48.844;9.726;2023-04-08T03:11:15;96277.69;;;4.84;100.00
54038;BME280;39954;48.844;9.726;2023-04-08T03:12:17;96275.22;;;4.81;100.00
54038;BME280;39954;48.844;9.726;2023-04-08T03:13:21;96280.47;;;4.78;100.00
54038;BME280;39954;48.844;9.726;2023-04-08T03:14:26;96275.41;;;4.75;100.00
54038;BME280;39954;48.844;9.726;2023-04-08T03:15:31;96269.53;;;4.71;100.00
54038;BME280;39954;48.844;9.726;2023-04-08T03:16:33;96271.84;;;4.79;100.00
54038;BME280;39954;48.844;9.726;2023-04-08T03:17:38;96275.28;;;4.79;100.00
54038;BME280;39954;48.844;9.726;2023-04-08T03:18:40;96270.31;;;4.73;100.00
54038;BME280;39954;48.844;9.726;2023-04-08T03:19:44;96277.78;;;4.81;100.00
54038;BME280;39954;48.844;9.726;2023-04-08T03:20:47;96273.84;;;4.70;100.00
54038;BME280;39954;48.844;9.726;2023-04-08T03:21:51;96270.38;;;4.71;100.00
54038;BME280;39954;48.844;9.726;2023-04-08T03:22:54;96269.28;;;4.79;100.00
54038;BME280;39954;48.844;9.726;2023-04-08T03:23:58;96271.25;;;4.70;100.00
54038;BME280;39954;48.844;9.726;2023-04-08T03:25:01;96263.59;;;4.67;100.00
54038;BME280;39954;48.844;9.726;2023-04-08T03:26:05;96267.97;;;4.65;100.00
54038;BME280;39954;48.844;9.726;2023-04-08T03:27:08;96274.09;;;4.61;100.00
54038;BME280;39954;48.844;9.726;2023-04-08T03:28:13;96268.91;;;4.63;100.00
54038;BME280;39954;48.844;9.726;2023-04-08T03:29:15;96273.28;;;4.59;100.00
54038;BME280;39954;48.844;9.726;2023-04-08T03:30:23;96269.97;;;4.56;100.00
54038;BME280;39954;48.844;9.726;2023-04-08T03:31:25;96271.81;;;4.52;100.00
54038;BME280;39954;48.844;9.726;2023-04-08T03:32:30;96266.69;;;4.51;100.00
54038;BME280;39954;48.844;9.726;2023-04-08T03:33:32;96272.78;;;4.48;100.00
54038;BME280;39954;48.844;9.726;2023-04-08T03:34:37;96278.78;;;4.48;100.00
54038;BME280;39954;48.844;9.726;2023-04-08T03:35:39;96277.09;;;4.47;100.00
54038;BME280;39954;48.844;9.726;2023-04-08T03:36:43;96275.41;;;4.46;100.00
54038;BME280;39954;48.844;9.726;2023-04-08T03:37:48;96279.72;;;4.46;100.00
54038;BME280;39954;48.844;9.726;2023-04-08T03:38:50;96281.38;;;4.48;100.00
54038;BME280;39954;48.844;9.726;2023-04-08T03:39:55;96283.13;;;4.46;100.00
54038;BME280;39954;48.844;9.726;2023-04-08T03:40:57;96284.91;;;4.44;100.00
54038;BME280;39954;48.844;9.726;2023-04-08T03:42:02;96283.22;;;4.43;100.00
54038;BME280;39954;48.844;9.726;2023-04-08T03:43:04;96290.09;;;4.43;100.00
54038;BME280;39954;48.844;9.726;2023-04-08T03:44:09;96279.53;;;4.52;100.00
54038;BME280;39954;48.844;9.726;2023-04-08T03:45:11;96274.28;;;4.55;100.00
54038;BME280;39954;48.844;9.726;2023-04-08T03:46:19;96276.91;;;4.54;100.00
54038;BME280;39954;48.844;9.726;2023-04-08T03:47:24;96274.41;;;4.51;100.00
54038;BME280;39954;48.844;9.726;2023-04-08T03:48:26;96283.00;;;4.51;100.00
54038;BME280;39954;48.844;9.726;2023-04-08T03:49:30;96284.91;;;4.44;100.00
54038;BME280;39954;48.844;9.726;2023-04-08T03:50:32;96284.06;;;4.44;100.00
54038;BME280;39954;48.844;9.726;2023-04-08T03:51:37;96278.94;;;4.42;100.00
54038;BME280;39954;48.844;9.726;2023-04-08T03:52:40;96279.72;;;4.46;100.00
54038;BME280;39954;48.844;9.726;2023-04-08T03:53:44;96278.16;;;4.40;100.00
54038;BME280;39954;48.844;9.726;2023-04-08T03:54:46;96280.78;;;4.39;100.00
54038;BME280;39954;48.844;9.726;2023-04-08T03:55:51;96277.19;;;4.44;100.00
54038;BME280;39954;48.844;9.726;2023-04-08T03:56:56;96272.88;;;4.45;100.00
54038;BME280;39954;48.844;9.726;2023-04-08T03:57:58;96273.78;;;4.42;100.00
54038;BME280;39954;48.844;9.726;2023-04-08T03:59:03;96280.50;;;4.48;100.00
54038;BME280;39954;48.844;9.726;2023-04-08T04:00:07;96281.41;;;4.47;100.00
54038;BME280;39954;48.844;9.726;2023-04-08T04:01:11;96281.31;;;4.50;100.00
54038;BME280;39954;48.844;9.726;2023-04-08T04:02:16;96279.56;;;4.51;100.00
54038;BME280;39954;48.844;9.726;2023-04-08T04:03:21;96280.56;;;4.46;100.00
54038;BME280;39954;48.844;9.726;2023-04-08T04:04:23;96282.28;;;4.46;100.00
54038;BME280;39954;48.844;9.726;2023-04-08T04:05:28;96276.16;;;4.50;100.00
54038;BME280;39954;48.844;9.726;2023-04-08T04:06:33;96279.91;;;4.40;100.00
54038;BME280;39954;48.844;9.726;2023-04-08T04:07:35;96273.22;;;4.34;100.00
54038;BME280;39954;48.844;9.726;2023-04-08T04:08:40;96274.13;;;4.32;100.00
54038;BME280;39954;48.844;9.726;2023-04-08T04:09:42;96277.41;;;4.37;100.00
54038;BME280;39954;48.844;9.726;2023-04-08T04:10:46;96272.50;;;4.29;100.00
54038;BME280;39954;48.844;9.726;2023-04-08T04:11:49;96278.59;;;4.25;100.00
54038;BME280;39954;48.844;9.726;2023-04-08T04:12:53;96280.34;;;4.24;100.00
54038;BME280;39954;48.844;9.726;2023-04-08T04:13:55;96281.25;;;4.22;100.00
54038;BME280;39954;48.844;9.726;2023-04-08T04:15:00;96286.47;;;4.20;100.00
54038;BME280;39954;48.844;9.726;2023-04-08T04:16:03;96288.88;;;4.25;100.00
54038;BME280;39954;48.844;9.726;2023-04-08T04:17:07;96290.44;;;4.31;100.00
54038;BME280;39954;48.844;9.726;2023-04-08T04:18:12;96291.28;;;4.31;100.00
54038;BME280;39954;48.844;9.726;2023-04-08T04:19:17;96293.00;;;4.31;100.00
54038;BME280;39954;48.844;9.726;2023-04-08T04:20:19;96291.25;;;4.33;100.00
54038;BME280;39954;48.844;9.726;2023-04-08T04:21:26;96292.06;;;4.35;100.00
54038;BME280;39954;48.844;9.726;2023-04-08T04:22:28;96297.97;;;4.37;100.00
54038;BME280;39954;48.844;9.726;2023-04-08T04:23:33;96295.25;;;4.43;100.00
54038;BME280;39954;48.844;9.726;2023-04-08T04:24:35;96303.84;;;4.42;100.00
54038;BME280;39954;48.844;9.726;2023-04-08T04:25:40;96301.28;;;4.42;100.00
54038;BME280;39954;48.844;9.726;2023-04-08T04:26:43;96306.16;;;4.51;100.00
54038;BME280;39954;48.844;9.726;2023-04-08T04:27:47;96307.00;;;4.52;100.00
54038;BME280;39954;48.844;9.726;2023-04-08T04:28:49;96309.44;;;4.56;100.00
54038;BME280;39954;48.844;9.726;2023-04-08T04:29:54;96302.50;;;4.58;100.00
54038;BME280;39954;48.844;9.726;2023-04-08T04:30:56;96311.88;;;4.61;100.00
54038;BME280;39954;48.844;9.726;2023-04-08T04:32:01;96311.75;;;4.65;100.00
54038;BME280;39954;48.844;9.726;2023-04-08T04:33:06;96311.75;;;4.65;100.00
54038;BME280;39954;48.844;9.726;2023-04-08T04:34:11;96312.53;;;4.67;100.00
54038;BME280;39954;48.844;9.726;2023-04-08T04:35:15;96311.84;;;4.62;100.00
54038;BME280;39954;48.844;9.726;2023-04-08T04:36:17;96305.72;;;4.65;100.00
54038;BME280;39954;48.844;9.726;2023-04-08T04:37:23;96311.84;;;4.62;100.00
54038;BME280;39954;48.844;9.726;2023-04-08T04:38:25;96309.22;;;4.64;100.00
54038;BME280;39954;48.844;9.726;2023-04-08T04:39:29;96312.63;;;4.64;100.00
54038;BME280;39954;48.844;9.726;2023-04-08T04:40:31;96314.31;;;4.65;100.00
54038;BME280;39954;48.844;9.726;2023-04-08T04:41:36;96309.94;;;4.67;100.00
54038;BME280;39954;48.844;9.726;2023-04-08T04:42:41;96315.19;;;4.64;100.00
54038;BME280;39954;48.844;9.726;2023-04-08T04:43:46;96310.97;;;4.62;100.00
54038;BME280;39954;48.844;9.726;2023-04-08T04:44:48;96308.47;;;4.60;100.00
54038;BME280;39954;48.844;9.726;2023-04-08T04:45:52;96315.38;;;4.58;100.00
54038;BME280;39954;48.844;9.726;2023-04-08T04:46:54;96311.06;;;4.59;100.00
54038;BME280;39954;48.844;9.726;2023-04-08T04:47:59;96314.63;;;4.55;100.00
54038;BME280;39954;48.844;9.726;2023-04-08T04:49:01;96304.13;;;4.62;100.00
54038;BME280;39954;48.844;9.726;2023-04-08T04:50:10;96317.75;;;4.64;100.00
54038;BME280;39954;48.844;9.726;2023-04-08T04:51:12;96318.56;;;4.66;100.00
54038;BME280;39954;48.844;9.726;2023-04-08T04:52:17;96320.25;;;4.67;100.00
54038;BME280;39954;48.844;9.726;2023-04-08T04:53:19;96316.81;;;4.68;100.00
54038;BME280;39954;48.844;9.726;2023-04-08T04:54:23;96320.19;;;4.70;100.00
54038;BME280;39954;48.844;9.726;2023-04-08T04:55:26;96314.53;;;4.58;100.00
54038;BME280;39954;48.844;9.726;2023-04-08T04:56:31;96316.41;;;4.53;100.00
54038;BME280;39954;48.844;9.726;2023-04-08T04:57:33;96324.22;;;4.49;100.00
54038;BME280;39954;48.844;9.726;2023-04-08T04:58:38;96311.16;;;4.56;100.00
54038;BME280;39954;48.844;9.726;2023-04-08T04:59:43;96315.66;;;4.49;100.00
54038;BME280;39954;48.844;9.726;2023-04-08T05:01:11;96319.09;;;4.48;100.00
54038;BME280;39954;48.844;9.726;2023-04-08T05:03:48;96316.59;;;4.46;100.00
54038;BME280;39954;48.844;9.726;2023-04-08T05:04:53;96325.22;;;4.45;100.00
54038;BME280;39954;48.844;9.726;2023-04-08T05:05:59;96322.69;;;4.42;100.00
54038;BME280;39954;48.844;9.726;2023-04-08T05:07:03;96324.25;;;4.48;100.00
54038;BME280;39954;48.844;9.726;2023-04-08T05:08:06;96324.19;;;4.51;100.00
54038;BME280;39954;48.844;9.726;2023-04-08T05:09:11;96322.28;;;4.56;100.00
54038;BME280;39954;48.844;9.726;2023-04-08T05:10:13;96326.66;;;4.54;100.00
54038;BME280;39954;48.844;9.726;2023-04-08T05:11:17;96329.16;;;4.57;100.00
54038;BME280;39954;48.844;9.726;2023-04-08T05:12:20;96334.22;;;4.59;100.00
54038;BME280;39954;48.844;9.726;2023-04-08T05:13:24;96331.72;;;4.57;100.00
54038;BME280;39954;48.844;9.726;2023-04-08T05:14:28;96342.97;;;4.53;100.00
54038;BME280;39954;48.844;9.726;2023-04-08T05:15:32;96332.78;;;4.50;100.00
54038;BME280;39954;48.844;9.726;2023-04-08T05:16:34;96332.13;;;4.43;100.00
54038;BME280;39954;48.844;9.726;2023-04-08T05:17:40;96335.50;;;4.45;100.00
54038;BME280;39954;48.844;9.726;2023-04-08T05:18:42;96339.69;;;4.48;100.00
54038;BME280;39954;48.844;9.726;2023-04-08T05:19:46;96338.00;;;4.47;100.00
54038;BME280;39954;48.844;9.726;2023-04-08T05:20:49;96332.78;;;4.50;100.00
54038;BME280;39954;48.844;9.726;2023-04-08T05:21:56;96337.81;;;4.53;100.00
54038;BME280;39954;48.844;9.726;2023-04-08T05:22:58;96337.75;;;4.56;100.00
54038;BME280;39954;48.844;9.726;2023-04-08T05:24:03;96334.19;;;4.60;100.00
54038;BME280;39954;48.844;9.726;2023-04-08T05:25:09;96339.25;;;4.63;100.00
54038;BME280;39954;48.844;9.726;2023-04-08T05:26:11;96341.75;;;4.66;100.00
54038;BME280;39954;48.844;9.726;2023-04-08T05:27:17;96343.25;;;4.74;100.00
54038;BME280;39954;48.844;9.726;2023-04-08T05:28:19;96337.13;;;4.78;100.00
54038;BME280;39954;48.844;9.726;2023-04-08T05:29:24;96341.47;;;4.76;100.00
54038;BME280;39954;48.844;9.726;2023-04-08T05:30:26;96343.06;;;4.80;100.00
54038;BME280;39954;48.844;9.726;2023-04-08T05:31:31;96338.72;;;4.82;100.00
54038;BME280;39954;48.844;9.726;2023-04-08T05:32:33;96341.38;;;4.79;100.00
54038;BME280;39954;48.844;9.726;2023-04-08T05:33:38;96342.06;;;4.84;100.00
54038;BME280;39954;48.844;9.726;2023-04-08T05:34:40;96338.53;;;4.88;100.00
54038;BME280;39954;48.844;9.726;2023-04-08T05:35:45;96337.69;;;4.87;100.00
54038;BME280;39954;48.844;9.726;2023-04-08T05:36:47;96334.22;;;4.88;100.00
54038;BME280;39954;48.844;9.726;2023-04-08T05:37:55;96336.72;;;4.90;100.00
54038;BME280;39954;48.844;9.726;2023-04-08T05:38:57;96337.59;;;4.90;100.00
54038;BME280;39954;48.844;9.726;2023-04-08T05:40:05;96336.72;;;4.90;100.00
54038;BME280;39954;48.844;9.726;2023-04-08T05:41:07;96338.72;;;4.82;100.00
54038;BME280;39954;48.844;9.726;2023-04-08T05:42:12;96341.16;;;4.86;100.00
54038;BME280;39954;48.844;9.726;2023-04-08T05:43:14;96338.53;;;4.88;100.00